sensor_id;sensor_type;location;lat;lon;timestamp;P1;durP1;ratioP1;P2;durP2;ratioP2
3036;SDS011;1528;52.550;13.408;2024-03-08T00:01:45;30.97;;;28.30;;
3036;SDS011;1528;52.550;13.408;2024-03-08T00:04:30;33.13;;;30.20;;
3036;SDS011;1528;52.550;13.408;2024-03-08T00:07:16;34.17;;;30.90;;
3036;SDS011;1528;52.550;13.408;2024-03-08T00:10:02;29.97;;;27.37;;
3036;SDS011;1528;52.550;13.408;2024-03-08T00:12:47;28.30;;;25.70;;
3036;SDS011;1528;52.550;13.408;2024-03-08T00:15:34;29.57;;;26.77;;
3036;SDS011;1528;52.550;13.408;2024-03-08T00:18:21;28.90;;;26.10;;
3036;SDS011;1528;52.550;13.408;2024-03-08T00:21:06;33.37;;;30.77;;
3036;SDS011;1528;52.550;13.408;2024-03-08T00:23:53;30.90;;;28.37;;
3036;SDS011;1528;52.550;13.408;2024-03-08T00:26:39;28.23;;;25.73;;
3036;SDS011;1528;52.550;13.408;2024-03-08T00:29:25;30.80;;;28.20;;
3036;SDS011;1528;52.550;13.408;2024-03-08T00:32:11;29.23;;;26.53;;
3036;SDS011;1528;52.550;13.408;2024-03-08T00:34:58;33.57;;;30.80;;
3036;SDS011;1528;52.550;13.408;2024-03-08T00:37:43;31.80;;;29.30;;
3036;SDS011;1528;52.550;13.408;2024-03-08T00:40:30;27.27;;;24.77;;
3036;SDS011;1528;52.550;13.408;2024-03-08T00:43:16;31.40;;;28.60;;
3036;SDS011;1528;52.550;13.408;2024-03-08T00:46:01;26.57;;;24.27;;
3036;SDS011;1528;52.550;13.408;2024-03-08T00:48:47;30.83;;;27.60;;
3036;SDS011;1528;52.550;13.408;2024-03-08T00:51:34;29.50;;;26.70;;
3036;SDS011;1528;52.550;13.408;2024-03-08T00:54:20;30.53;;;27.90;;
3036;SDS011;1528;52.550;13.408;2024-03-08T00:57:06;32.57;;;29.70;;
3036;SDS011;1528;52.550;13.408;2024-03-08T00:59:51;28.50;;;25.70;;
3036;SDS011;1528;52.550;13.408;2024-03-08T01:02:37;29.17;;;26.20;;
3036;SDS011;1528;52.550;13.408;2024-03-08T01:05:23;33.80;;;30.80;;
3036;SDS011;1528;52.550;13.408;2024-03-08T01:08:10;28.70;;;26.10;;
3036;SDS011;1528;52.550;13.408;2024-03-08T01:10:56;29.90;;;27.40;;
3036;SDS011;1528;52.550;13.408;2024-03-08T01:13:41;32.63;;;29.57;;
3036;SDS011;1528;52.550;13.408;2024-03-08T01:16:27;30.00;;;27.20;;
3036;SDS011;1528;52.550;13.408;2024-03-08T01:19:13;26.50;;;23.97;;
3036;SDS011;1528;52.550;13.408;2024-03-08T01:21:59;33.90;;;30.60;;
3036;SDS011;1528;52.550;13.408;2024-03-08T01:24:46;29.43;;;26.60;;
3036;SDS011;1528;52.550;13.408;2024-03-08T01:27:31;29.43;;;26.90;;
3036;SDS011;1528;52.550;13.408;2024-03-08T01:30:20;28.53;;;25.83;;
3036;SDS011;1528;52.550;13.408;2024-03-08T01:33:06;28.40;;;25.50;;
3036;SDS011;1528;52.550;13.408;2024-03-08T01:35:51;27.60;;;25.00;;
3036;SDS011;1528;52.550;13.408;2024-03-08T01:38:38;29.83;;;27.13;;
3036;SDS011;1528;52.550;13.408;2024-03-08T01:41:25;31.03;;;28.10;;
3036;SDS011;1528;52.550;13.408;2024-03-08T01:44:13;31.63;;;28.83;;
3036;SDS011;1528;52.550;13.408;2024-03-08T01:47:01;33.27;;;30.37;;
3036;SDS011;1528;52.550;13.408;2024-03-08T01:49:46;30.73;;;27.73;;
3036;SDS011;1528;52.550;13.408;2024-03-08T01:52:32;30.63;;;27.73;;
3036;SDS011;1528;52.550;13.408;2024-03-08T01:55:18;26.73;;;24.23;;
3036;SDS011;1528;52.550;13.408;2024-03-08T01:58:06;30.60;;;27.50;;
3036;SDS011;1528;52.550;13.408;2024-03-08T02:00:56;32.53;;;29.43;;
3036;SDS011;1528;52.550;13.408;2024-03-08T02:03:42;31.73;;;28.73;;
3036;SDS011;1528;52.550;13.408;2024-03-08T02:06:28;30.93;;;28.13;;
3036;SDS011;1528;52.550;13.408;2024-03-08T02:09:14;30.33;;;27.50;;
3036;SDS011;1528;52.550;13.408;2024-03-08T02:12:01;33.40;;;30.40;;
3036;SDS011;1528;52.550;13.408;2024-03-08T02:14:48;32.07;;;28.97;;
3036;SDS011;1528;52.550;13.408;2024-03-08T02:17:33;31.50;;;28.70;;
3036;SDS011;1528;52.550;13.408;2024-03-08T02:20:19;34.23;;;30.97;;
3036;SDS011;1528;52.550;13.408;2024-03-08T02:23:06;29.97;;;27.10;;
3036;SDS011;1528;52.550;13.408;2024-03-08T02:25:52;30.23;;;27.77;;
3036;SDS011;1528;52.550;13.408;2024-03-08T02:28:38;34.43;;;31.33;;
3036;SDS011;1528;52.550;13.408;2024-03-08T02:31:27;32.10;;;29.30;;
3036;SDS011;1528;52.550;13.408;2024-03-08T02:34:12;32.93;;;29.93;;
3036;SDS011;1528;52.550;13.408;2024-03-08T02:36:58;31.07;;;28.37;;
3036;SDS011;1528;52.550;13.408;2024-03-08T02:39:45;30.93;;;28.07;;
3036;SDS011;1528;52.550;13.408;2024-03-08T02:42:30;32.27;;;29.20;;
3036;SDS011;1528;52.550;13.408;2024-03-08T02:45:16;32.20;;;29.63;;
3036;SDS011;1528;52.550;13.408;2024-03-08T02:48:02;32.70;;;29.70;;
3036;SDS011;1528;52.550;13.408;2024-03-08T02:50:48;31.70;;;28.73;;
3036;SDS011;1528;52.550;13.408;2024-03-08T02:53:35;34.37;;;30.67;;
3036;SDS011;1528;52.550;13.408;2024-03-08T02:56:22;32.13;;;29.33;;
3036;SDS011;1528;52.550;13.408;2024-03-08T02:59:08;31.10;;;28.10;;
3036;SDS011;1528;52.550;13.408;2024-03-08T03:01:53;32.73;;;29.90;;
3036;SDS011;1528;52.550;13.408;2024-03-08T03:04:39;31.77;;;28.77;;
3036;SDS011;1528;52.550;13.408;2024-03-08T03:07:24;35.00;;;31.60;;
3036;SDS011;1528;52.550;13.408;2024-03-08T03:17:19;35.93;;;32.50;;
3036;SDS011;1528;52.550;13.408;2024-03-08T03:20:05;35.63;;;32.10;;
3036;SDS011;1528;52.550;13.408;2024-03-08T03:22:54;34.57;;;31.57;;
3036;SDS011;1528;52.550;13.408;2024-03-08T03:25:40;31.93;;;29.10;;
3036;SDS011;1528;52.550;13.408;2024-03-08T03:28:26;30.60;;;27.60;;
3036;SDS011;1528;52.550;13.408;2024-03-08T03:31:12;35.43;;;31.90;;
3036;SDS011;1528;52.550;13.408;2024-03-08T03:33:59;35.40;;;31.80;;
3036;SDS011;1528;52.550;13.408;2024-03-08T03:36:46;33.27;;;30.37;;
3036;SDS011;1528;52.550;13.408;2024-03-08T03:39:32;34.03;;;30.93;;
3036;SDS011;1528;52.550;13.408;2024-03-08T03:42:18;33.33;;;30.33;;
3036;SDS011;1528;52.550;13.408;2024-03-08T03:45:05;31.13;;;28.27;;
3036;SDS011;1528;52.550;13.408;2024-03-08T03:47:50;34.90;;;31.57;;
3036;SDS011;1528;52.550;13.408;2024-03-08T03:50:38;30.00;;;27.27;;
3036;SDS011;1528;52.550;13.408;2024-03-08T03:53:23;34.17;;;30.80;;
3036;SDS011;1528;52.550;13.408;2024-03-08T03:56:10;31.40;;;28.27;;
3036;SDS011;1528;52.550;13.408;2024-03-08T03:58:55;32.03;;;28.83;;
3036;SDS011;1528;52.550;13.408;2024-03-08T04:01:41;33.63;;;30.30;;
3036;SDS011;1528;52.550;13.408;2024-03-08T04:04:27;35.33;;;32.10;;
3036;SDS011;1528;52.550;13.408;2024-03-08T04:07:14;35.03;;;31.53;;
3036;SDS011;1528;52.550;13.408;2024-03-08T04:10:00;34.40;;;30.87;;
3036;SDS011;1528;52.550;13.408;2024-03-08T04:12:45;33.70;;;30.20;;
3036;SDS011;1528;52.550;13.408;2024-03-08T04:15:31;34.40;;;31.20;;
3036;SDS011;1528;52.550;13.408;2024-03-08T04:18:16;32.13;;;28.93;;
3036;SDS011;1528;52.550;13.408;2024-03-08T04:21:03;33.90;;;30.43;;
3036;SDS011;1528;52.550;13.408;2024-03-08T04:23:52;31.07;;;27.97;;
3036;SDS011;1528;52.550;13.408;2024-03-08T04:26:38;32.10;;;28.70;;
3036;SDS011;1528;52.550;13.408;2024-03-08T04:29:23;34.87;;;31.37;;
3036;SDS011;1528;52.550;13.408;2024-03-08T04:32:09;34.90;;;31.40;;
3036;SDS011;1528;52.550;13.408;2024-03-08T04:34:57;32.30;;;29.40;;
3036;SDS011;1528;52.550;13.408;2024-03-08T04:37:45;35.80;;;32.13;;
3036;SDS011;1528;52.550;13.408;2024-03-08T04:40:32;35.20;;;31.50;;
3036;SDS011;1528;52.550;13.408;2024-03-08T04:43:18;34.17;;;30.67;;
3036;SDS011;1528;52.550;13.408;2024-03-08T04:46:04;33.97;;;30.37;;
3036;SDS011;1528;52.550;13.408;2024-03-08T04:48:49;36.97;;;33.57;;
3036;SDS011;1528;52.550;13.408;2024-03-08T04:51:35;32.03;;;28.93;;
3036;SDS011;1528;52.550;13.408;2024-03-08T04:54:21;34.90;;;31.60;;
3036;SDS011;1528;52.550;13.408;2024-03-08T04:57:08;37.13;;;33.60;;
3036;SDS011;1528;52.550;13.408;2024-03-08T04:59:53;34.90;;;31.50;;
3036;SDS011;1528;52.550;13.408;2024-03-08T05:02:39;34.53;;;31.43;;
3036;SDS011;1528;52.550;13.408;2024-03-08T05:05:25;37.57;;;33.60;;
3036;SDS011;1528;52.550;13.408;2024-03-08T05:08:12;33.63;;;30.63;;
3036;SDS011;1528;52.550;13.408;2024-03-08T05:10:57;37.10;;;33.33;;
3036;SDS011;1528;52.550;13.408;2024-03-08T05:13:48;33.07;;;29.77;;
3036;SDS011;1528;52.550;13.408;2024-03-08T05:16:34;33.50;;;29.90;;
3036;SDS011;1528;52.550;13.408;2024-03-08T05:19:19;34.93;;;30.50;;
3036;SDS011;1528;52.550;13.408;2024-03-08T05:22:05;34.63;;;31.27;;
3036;SDS011;1528;52.550;13.408;2024-03-08T05:24:51;34.63;;;31.23;;
3036;SDS011;1528;52.550;13.408;2024-03-08T05:27:36;36.63;;;32.87;;
3036;SDS011;1528;52.550;13.408;2024-03-08T05:30:23;35.57;;;31.97;;
3036;SDS011;1528;52.550;13.408;2024-03-08T05:33:09;35.87;;;32.27;;
3036;SDS011;1528;52.550;13.408;2024-03-08T05:35:54;30.23;;;27.30;;
3036;SDS011;1528;52.550;13.408;2024-03-08T05:38:40;33.60;;;30.27;;
3036;SDS011;1528;52.550;13.408;2024-03-08T05:41:27;35.97;;;32.47;;
3036;SDS011;1528;52.550;13.408;2024-03-08T05:44:13;34.97;;;31.37;;
3036;SDS011;1528;52.550;13.408;2024-03-08T05:47:02;36.77;;;32.97;;
3036;SDS011;1528;52.550;13.408;2024-03-08T05:49:47;34.30;;;31.00;;
3036;SDS011;1528;52.550;13.408;2024-03-08T05:52:33;38.53;;;34.80;;
3036;SDS011;1528;52.550;13.408;2024-03-08T05:55:18;34.83;;;31.23;;
3036;SDS011;1528;52.550;13.408;2024-03-08T05:58:04;35.37;;;31.63;;
3036;SDS011;1528;52.550;13.408;2024-03-08T06:00:51;35.70;;;32.13;;
3036;SDS011;1528;52.550;13.408;2024-03-08T06:03:38;36.60;;;33.20;;
3036;SDS011;1528;52.550;13.408;2024-03-08T06:06:28;38.53;;;34.40;;
3036;SDS011;1528;52.550;13.408;2024-03-08T06:09:14;35.73;;;32.30;;
3036;SDS011;1528;52.550;13.408;2024-03-08T06:12:06;34.57;;;31.03;;
3036;SDS011;1528;52.550;13.408;2024-03-08T06:14:54;37.50;;;33.93;;
3036;SDS011;1528;52.550;13.408;2024-03-08T06:17:40;38.10;;;34.40;;
3036;SDS011;1528;52.550;13.408;2024-03-08T06:20:27;36.73;;;33.27;;
3036;SDS011;1528;52.550;13.408;2024-03-08T06:23:12;35.70;;;32.20;;
3036;SDS011;1528;52.550;13.408;2024-03-08T06:26:01;36.23;;;32.43;;
3036;SDS011;1528;52.550;13.408;2024-03-08T06:28:47;37.67;;;34.00;;
3036;SDS011;1528;52.550;13.408;2024-03-08T06:31:32;38.97;;;35.00;;
3036;SDS011;1528;52.550;13.408;2024-03-08T06:34:18;37.70;;;33.90;;
3036;SDS011;1528;52.550;13.408;2024-03-08T06:37:05;38.23;;;34.50;;
3036;SDS011;1528;52.550;13.408;2024-03-08T06:39:51;40.57;;;36.73;;
3036;SDS011;1528;52.550;13.408;2024-03-08T06:42:38;40.87;;;36.97;;
3036;SDS011;1528;52.550;13.408;2024-03-08T06:45:25;39.83;;;35.63;;
3036;SDS011;1528;52.550;13.408;2024-03-08T06:48:10;36.80;;;33.00;;
3036;SDS011;1528;52.550;13.408;2024-03-08T06:50:56;37.87;;;34.23;;
3036;SDS011;1528;52.550;13.408;2024-03-08T06:53:43;42.70;;;38.73;;
3036;SDS011;1528;52.550;13.408;2024-03-08T06:56:29;38.67;;;35.00;;
3036;SDS011;1528;52.550;13.408;2024-03-08T06:59:14;39.70;;;36.10;;
3036;SDS011;1528;52.550;13.408;2024-03-08T07:02:01;39.23;;;35.17;;
3036;SDS011;1528;52.550;13.408;2024-03-08T07:04:47;42.97;;;38.97;;
3036;SDS011;1528;52.550;13.408;2024-03-08T07:07:33;37.77;;;34.13;;
3036;SDS011;1528;52.550;13.408;2024-03-08T07:10:20;37.13;;;33.40;;
3036;SDS011;1528;52.550;13.408;2024-03-08T07:13:08;38.87;;;35.47;;
3036;SDS011;1528;52.550;13.408;2024-03-08T07:15:53;39.43;;;35.83;;
3036;SDS011;1528;52.550;13.408;2024-03-08T07:18:39;38.90;;;35.40;;
3036;SDS011;1528;52.550;13.408;2024-03-08T07:21:26;36.63;;;33.27;;
3036;SDS011;1528;52.550;13.408;2024-03-08T07:24:13;38.10;;;34.60;;
3036;SDS011;1528;52.550;13.408;2024-03-08T07:27:18;39.10;;;35.17;;
3036;SDS011;1528;52.550;13.408;2024-03-08T07:30:04;40.57;;;36.50;;
3036;SDS011;1528;52.550;13.408;2024-03-08T07:32:50;37.53;;;33.93;;
3036;SDS011;1528;52.550;13.408;2024-03-08T07:35:36;41.10;;;37.17;;
3036;SDS011;1528;52.550;13.408;2024-03-08T07:38:21;40.67;;;37.00;;
3036;SDS011;1528;52.550;13.408;2024-03-08T07:41:07;39.07;;;35.37;;
3036;SDS011;1528;52.550;13.408;2024-03-08T07:43:54;39.30;;;35.70;;
3036;SDS011;1528;52.550;13.408;2024-03-08T07:46:39;38.27;;;34.67;;
3036;SDS011;1528;52.550;13.408;2024-03-08T07:49:25;39.60;;;35.93;;
3036;SDS011;1528;52.550;13.408;2024-03-08T07:52:10;36.83;;;33.23;;
3036;SDS011;1528;52.550;13.408;2024-03-08T07:54:59;37.07;;;33.43;;
3036;SDS011;1528;52.550;13.408;2024-03-08T07:57:45;37.77;;;33.83;;
3036;SDS011;1528;52.550;13.408;2024-03-08T08:00:32;36.97;;;33.53;;
3036;SDS011;1528;52.550;13.408;2024-03-08T08:03:19;37.27;;;34.07;;
3036;SDS011;1528;52.550;13.408;2024-03-08T08:06:05;36.43;;;32.93;;
3036;SDS011;1528;52.550;13.408;2024-03-08T08:08:51;37.90;;;34.17;;
3036;SDS011;1528;52.550;13.408;2024-03-08T08:11:37;37.70;;;34.00;;
3036;SDS011;1528;52.550;13.408;2024-03-08T08:14:22;38.43;;;34.83;;
3036;SDS011;1528;52.550;13.408;2024-03-08T08:17:09;34.07;;;30.97;;
3036;SDS011;1528;52.550;13.408;2024-03-08T08:19:55;36.60;;;33.70;;
3036;SDS011;1528;52.550;13.408;2024-03-08T08:22:41;37.97;;;34.77;;
3036;SDS011;1528;52.550;13.408;2024-03-08T08:25:26;36.20;;;33.00;;
3036;SDS011;1528;52.550;13.408;2024-03-08T08:28:12;34.53;;;31.40;;
3036;SDS011;1528;52.550;13.408;2024-03-08T08:30:57;35.97;;;32.67;;
3036;SDS011;1528;52.550;13.408;2024-03-08T08:33:44;33.13;;;30.33;;
3036;SDS011;1528;52.550;13.408;2024-03-08T08:36:32;30.97;;;28.47;;
3036;SDS011;1528;52.550;13.408;2024-03-08T08:39:17;32.57;;;29.60;;
3036;SDS011;1528;52.550;13.408;2024-03-08T08:42:02;30.87;;;28.00;;
3036;SDS011;1528;52.550;13.408;2024-03-08T08:44:49;32.03;;;29.27;;
3036;SDS011;1528;52.550;13.408;2024-03-08T08:47:34;31.40;;;28.67;;
3036;SDS011;1528;52.550;13.408;2024-03-08T08:50:21;32.60;;;29.80;;
3036;SDS011;1528;52.550;13.408;2024-03-08T08:53:07;34.83;;;31.70;;
3036;SDS011;1528;52.550;13.408;2024-03-08T08:55:54;31.73;;;28.93;;
3036;SDS011;1528;52.550;13.408;2024-03-08T08:58:40;34.57;;;31.83;;
3036;SDS011;1528;52.550;13.408;2024-03-08T09:05:07;34.97;;;31.80;;
3036;SDS011;1528;52.550;13.408;2024-03-08T09:07:54;34.27;;;31.43;;
3036;SDS011;1528;52.550;13.408;2024-03-08T09:10:39;33.37;;;30.40;;
3036;SDS011;1528;52.550;13.408;2024-03-08T09:13:25;32.67;;;29.67;;
3036;SDS011;1528;52.550;13.408;2024-03-08T09:16:10;32.77;;;29.77;;
3036;SDS011;1528;52.550;13.408;2024-03-08T09:18:56;33.43;;;30.73;;
3036;SDS011;1528;52.550;13.408;2024-03-08T09:21:41;36.40;;;33.60;;
3036;SDS011;1528;52.550;13.408;2024-03-08T09:24:28;35.43;;;32.53;;
3036;SDS011;1528;52.550;13.408;2024-03-08T09:27:14;34.57;;;31.77;;
3036;SDS011;1528;52.550;13.408;2024-03-08T09:30:00;40.43;;;37.03;;
3036;SDS011;1528;52.550;13.408;2024-03-08T09:32:46;34.20;;;31.27;;
3036;SDS011;1528;52.550;13.408;2024-03-08T09:35:32;33.17;;;30.27;;
3036;SDS011;1528;52.550;13.408;2024-03-08T09:38:17;33.83;;;31.27;;
3036;SDS011;1528;52.550;13.408;2024-03-08T09:41:06;35.30;;;32.47;;
3036;SDS011;1528;52.550;13.408;2024-03-08T09:43:53;36.33;;;33.57;;
3036;SDS011;1528;52.550;13.408;2024-03-08T09:46:39;31.53;;;28.87;;
3036;SDS011;1528;52.550;13.408;2024-03-08T09:49:25;34.23;;;31.20;;
3036;SDS011;1528;52.550;13.408;2024-03-08T09:52:10;34.43;;;31.60;;
3036;SDS011;1528;52.550;13.408;2024-03-08T09:54:57;34.17;;;31.37;;
3036;SDS011;1528;52.550;13.408;2024-03-08T09:57:45;32.90;;;30.10;;
3036;SDS011;1528;52.550;13.408;2024-03-08T10:00:52;33.83;;;31.23;;
3036;SDS011;1528;52.550;13.408;2024-03-08T10:03:38;33.17;;;30.60;;
3036;SDS011;1528;52.550;13.408;2024-03-08T10:06:23;33.23;;;30.57;;
3036;SDS011;1528;52.550;13.408;2024-03-08T10:09:09;34.03;;;31.20;;
3036;SDS011;1528;52.550;13.408;2024-03-08T10:11:56;34.63;;;31.83;;
3036;SDS011;1528;52.550;13.408;2024-03-08T10:14:43;34.23;;;31.30;;
3036;SDS011;1528;52.550;13.408;2024-03-08T10:17:30;29.83;;;27.50;;
3036;SDS011;1528;52.550;13.408;2024-03-08T10:20:16;32.43;;;29.93;;
3036;SDS011;1528;52.550;13.408;2024-03-08T10:23:03;32.43;;;29.70;;
3036;SDS011;1528;52.550;13.408;2024-03-08T10:25:49;34.20;;;31.30;;
3036;SDS011;1528;52.550;13.408;2024-03-08T10:28:35;31.00;;;28.70;;
3036;SDS011;1528;52.550;13.408;2024-03-08T10:31:22;29.60;;;27.37;;
3036;SDS011;1528;52.550;13.408;2024-03-08T10:34:07;34.57;;;31.67;;
3036;SDS011;1528;52.550;13.408;2024-03-08T10:36:53;31.53;;;29.13;;
3036;SDS011;1528;52.550;13.408;2024-03-08T10:39:45;32.87;;;30.40;;
3036;SDS011;1528;52.550;13.408;2024-03-08T10:42:40;30.53;;;28.13;;
3036;SDS011;1528;52.550;13.408;2024-03-08T10:45:34;29.97;;;27.87;;
3036;SDS011;1528;52.550;13.408;2024-03-08T10:48:25;32.93;;;29.90;;
3036;SDS011;1528;52.550;13.408;2024-03-08T10:51:15;31.63;;;29.13;;
3036;SDS011;1528;52.550;13.408;2024-03-08T10:54:01;31.07;;;28.67;;
3036;SDS011;1528;52.550;13.408;2024-03-08T10:56:48;29.53;;;27.00;;
3036;SDS011;1528;52.550;13.408;2024-03-08T10:59:34;29.23;;;27.17;;
3036;SDS011;1528;52.550;13.408;2024-03-08T11:02:20;31.30;;;28.80;;
3036;SDS011;1528;52.550;13.408;2024-03-08T11:05:07;28.50;;;25.90;;
3036;SDS011;1528;52.550;13.408;2024-03-08T11:07:57;28.43;;;26.13;;
3036;SDS011;1528;52.550;13.408;2024-03-08T11:10:46;29.00;;;26.70;;
3036;SDS011;1528;52.550;13.408;2024-03-08T11:13:35;29.40;;;26.97;;
3036;SDS011;1528;52.550;13.408;2024-03-08T11:16:36;29.40;;;27.03;;
3036;SDS011;1528;52.550;13.408;2024-03-08T11:19:24;28.90;;;26.70;;
3036;SDS011;1528;52.550;13.408;2024-03-08T11:22:21;28.40;;;26.30;;
3036;SDS011;1528;52.550;13.408;2024-03-08T11:25:09;26.87;;;24.70;;
3036;SDS011;1528;52.550;13.408;2024-03-08T11:28:07;28.73;;;26.60;;
3036;SDS011;1528;52.550;13.408;2024-03-08T11:34:14;27.83;;;25.47;;
3036;SDS011;1528;52.550;13.408;2024-03-08T11:37:06;29.73;;;27.33;;
3036;SDS011;1528;52.550;13.408;2024-03-08T11:39:58;27.53;;;25.43;;
3036;SDS011;1528;52.550;13.408;2024-03-08T11:42:45;26.70;;;24.60;;
3036;SDS011;1528;52.550;13.408;2024-03-08T11:45:32;26.63;;;24.43;;
3036;SDS011;1528;52.550;13.408;2024-03-08T11:48:19;28.03;;;26.00;;
3036;SDS011;1528;52.550;13.408;2024-03-08T11:51:04;27.87;;;25.70;;
3036;SDS011;1528;52.550;13.408;2024-03-08T11:53:50;23.90;;;21.90;;
3036;SDS011;1528;52.550;13.408;2024-03-08T11:56:37;26.37;;;24.40;;
3036;SDS011;1528;52.550;13.408;2024-03-08T11:59:23;24.33;;;22.63;;
3036;SDS011;1528;52.550;13.408;2024-03-08T12:02:11;27.30;;;25.30;;
3036;SDS011;1528;52.550;13.408;2024-03-08T12:04:58;25.87;;;23.93;;
3036;SDS011;1528;52.550;13.408;2024-03-08T12:07:44;23.47;;;21.67;;
3036;SDS011;1528;52.550;13.408;2024-03-08T12:10:41;23.90;;;22.00;;
3036;SDS011;1528;52.550;13.408;2024-03-08T12:13:29;25.27;;;23.27;;
3036;SDS011;1528;52.550;13.408;2024-03-08T12:16:16;25.23;;;23.40;;
3036;SDS011;1528;52.550;13.408;2024-03-08T12:19:02;23.60;;;21.80;;
3036;SDS011;1528;52.550;13.408;2024-03-08T12:21:49;26.37;;;24.43;;
3036;SDS011;1528;52.550;13.408;2024-03-08T12:24:34;24.40;;;22.27;;
3036;SDS011;1528;52.550;13.408;2024-03-08T12:27:20;26.10;;;24.00;;
3036;SDS011;1528;52.550;13.408;2024-03-08T12:30:21;24.57;;;22.50;;
3036;SDS011;1528;52.550;13.408;2024-03-08T12:33:07;26.73;;;24.83;;
3036;SDS011;1528;52.550;13.408;2024-03-08T12:35:54;25.07;;;23.03;;
3036;SDS011;1528;52.550;13.408;2024-03-08T12:38:43;24.13;;;22.43;;
3036;SDS011;1528;52.550;13.408;2024-03-08T12:41:31;28.00;;;25.53;;
3036;SDS011;1528;52.550;13.408;2024-03-08T12:44:18;26.27;;;24.27;;
3036;SDS011;1528;52.550;13.408;2024-03-08T12:47:06;23.07;;;21.37;;
3036;SDS011;1528;52.550;13.408;2024-03-08T12:49:52;25.77;;;23.87;;
3036;SDS011;1528;52.550;13.408;2024-03-08T12:52:37;26.87;;;24.73;;
3036;SDS011;1528;52.550;13.408;2024-03-08T12:55:23;25.77;;;23.77;;
3036;SDS011;1528;52.550;13.408;2024-03-08T12:58:09;25.90;;;23.80;;
3036;SDS011;1528;52.550;13.408;2024-03-08T13:00:55;26.07;;;24.07;;
3036;SDS011;1528;52.550;13.408;2024-03-08T13:03:42;26.33;;;24.20;;
3036;SDS011;1528;52.550;13.408;2024-03-08T13:06:27;26.23;;;24.13;;
3036;SDS011;1528;52.550;13.408;2024-03-08T13:09:14;24.10;;;22.10;;
3036;SDS011;1528;52.550;13.408;2024-03-08T13:12:03;25.70;;;23.70;;
3036;SDS011;1528;52.550;13.408;2024-03-08T13:14:50;23.90;;;22.10;;
3036;SDS011;1528;52.550;13.408;2024-03-08T13:17:36;27.83;;;25.70;;
3036;SDS011;1528;52.550;13.408;2024-03-08T13:20:25;28.00;;;25.60;;
3036;SDS011;1528;52.550;13.408;2024-03-08T13:23:12;23.93;;;22.13;;
3036;SDS011;1528;52.550;13.408;2024-03-08T13:25:57;26.53;;;24.30;;
3036;SDS011;1528;52.550;13.408;2024-03-08T13:28:45;25.67;;;23.67;;
3036;SDS011;1528;52.550;13.408;2024-03-08T13:31:32;25.93;;;23.83;;
3036;SDS011;1528;52.550;13.408;2024-03-08T13:34:20;23.30;;;21.40;;
3036;SDS011;1528;52.550;13.408;2024-03-08T13:37:14;23.60;;;21.70;;
3036;SDS011;1528;52.550;13.408;2024-03-08T13:40:01;23.43;;;21.77;;
3036;SDS011;1528;52.550;13.408;2024-03-08T13:42:49;24.27;;;22.27;;
3036;SDS011;1528;52.550;13.408;2024-03-08T13:45:36;25.83;;;23.73;;
3036;SDS011;1528;52.550;13.408;2024-03-08T13:48:23;24.10;;;22.30;;
3036;SDS011;1528;52.550;13.408;2024-03-08T13:51:09;25.03;;;23.03;;
3036;SDS011;1528;52.550;13.408;2024-03-08T13:54:01;26.17;;;24.10;;
3036;SDS011;1528;52.550;13.408;2024-03-08T13:56:50;26.30;;;24.20;;
3036;SDS011;1528;52.550;13.408;2024-03-08T13:59:38;27.50;;;25.40;;
3036;SDS011;1528;52.550;13.408;2024-03-08T14:02:25;32.03;;;29.43;;
3036;SDS011;1528;52.550;13.408;2024-03-08T14:05:13;27.93;;;25.50;;
3036;SDS011;1528;52.550;13.408;2024-03-08T14:08:00;32.80;;;30.27;;
3036;SDS011;1528;52.550;13.408;2024-03-08T14:10:48;28.13;;;25.70;;
3036;SDS011;1528;52.550;13.408;2024-03-08T14:13:40;26.40;;;24.40;;
3036;SDS011;1528;52.550;13.408;2024-03-08T14:16:28;30.17;;;27.80;;
3036;SDS011;1528;52.550;13.408;2024-03-08T14:19:13;25.70;;;23.90;;
3036;SDS011;1528;52.550;13.408;2024-03-08T14:21:59;29.10;;;26.97;;
3036;SDS011;1528;52.550;13.408;2024-03-08T14:24:47;27.70;;;25.50;;
3036;SDS011;1528;52.550;13.408;2024-03-08T14:27:34;29.27;;;27.17;;
3036;SDS011;1528;52.550;13.408;2024-03-08T14:30:20;28.00;;;25.90;;
3036;SDS011;1528;52.550;13.408;2024-03-08T14:33:18;28.37;;;26.07;;
3036;SDS011;1528;52.550;13.408;2024-03-08T14:36:03;28.87;;;26.50;;
3036;SDS011;1528;52.550;13.408;2024-03-08T14:38:49;27.77;;;25.50;;
3036;SDS011;1528;52.550;13.408;2024-03-08T14:41:36;28.97;;;26.90;;
3036;SDS011;1528;52.550;13.408;2024-03-08T14:44:23;29.97;;;27.47;;
3036;SDS011;1528;52.550;13.408;2024-03-08T14:47:09;26.47;;;24.47;;
3036;SDS011;1528;52.550;13.408;2024-03-08T14:49:55;27.83;;;25.57;;
3036;SDS011;1528;52.550;13.408;2024-03-08T14:52:41;24.60;;;22.40;;
3036;SDS011;1528;52.550;13.408;2024-03-08T14:55:26;24.00;;;22.20;;
3036;SDS011;1528;52.550;13.408;2024-03-08T14:58:14;23.93;;;22.10;;
3036;SDS011;1528;52.550;13.408;2024-03-08T15:01:01;24.97;;;23.07;;
3036;SDS011;1528;52.550;13.408;2024-03-08T15:03:47;23.20;;;21.67;;
3036;SDS011;1528;52.550;13.408;2024-03-08T15:06:33;24.13;;;22.33;;
3036;SDS011;1528;52.550;13.408;2024-03-08T15:09:20;23.20;;;21.57;;
3036;SDS011;1528;52.550;13.408;2024-03-08T15:12:06;23.83;;;22.03;;
3036;SDS011;1528;52.550;13.408;2024-03-08T15:14:53;22.13;;;20.60;;
3036;SDS011;1528;52.550;13.408;2024-03-08T15:17:41;24.40;;;22.43;;
3036;SDS011;1528;52.550;13.408;2024-03-08T15:20:26;21.13;;;19.53;;
3036;SDS011;1528;52.550;13.408;2024-03-08T15:23:13;20.80;;;19.20;;
3036;SDS011;1528;52.550;13.408;2024-03-08T15:25:59;20.73;;;19.03;;
3036;SDS011;1528;52.550;13.408;2024-03-08T15:28:47;20.67;;;18.97;;
3036;SDS011;1528;52.550;13.408;2024-03-08T15:31:35;21.47;;;19.93;;
3036;SDS011;1528;52.550;13.408;2024-03-08T15:34:23;22.97;;;21.37;;
3036;SDS011;1528;52.550;13.408;2024-03-08T15:37:09;21.30;;;19.73;;
3036;SDS011;1528;52.550;13.408;2024-03-08T15:40:00;22.13;;;20.33;;
3036;SDS011;1528;52.550;13.408;2024-03-08T15:42:54;20.00;;;18.50;;
3036;SDS011;1528;52.550;13.408;2024-03-08T15:45:40;22.20;;;20.80;;
3036;SDS011;1528;52.550;13.408;2024-03-08T15:48:26;22.63;;;20.83;;
3036;SDS011;1528;52.550;13.408;2024-03-08T15:51:16;22.30;;;20.30;;
3036;SDS011;1528;52.550;13.408;2024-03-08T15:54:03;22.53;;;20.73;;
3036;SDS011;1528;52.550;13.408;2024-03-08T15:56:49;21.70;;;20.10;;
3036;SDS011;1528;52.550;13.408;2024-03-08T15:59:35;23.40;;;21.53;;
3036;SDS011;1528;52.550;13.408;2024-03-08T16:02:22;24.40;;;22.63;;
3036;SDS011;1528;52.550;13.408;2024-03-08T16:05:09;23.47;;;21.50;;
3036;SDS011;1528;52.550;13.408;2024-03-08T16:07:59;23.47;;;21.87;;
3036;SDS011;1528;52.550;13.408;2024-03-08T16:10:46;22.80;;;20.83;;
3036;SDS011;1528;52.550;13.408;2024-03-08T16:13:34;21.60;;;20.00;;
3036;SDS011;1528;52.550;13.408;2024-03-08T16:16:23;20.27;;;18.57;;
3036;SDS011;1528;52.550;13.408;2024-03-08T16:19:10;20.57;;;19.17;;
3036;SDS011;1528;52.550;13.408;2024-03-08T16:21:57;21.60;;;19.90;;
3036;SDS011;1528;52.550;13.408;2024-03-08T16:24:45;22.30;;;20.80;;
3036;SDS011;1528;52.550;13.408;2024-03-08T16:27:34;20.73;;;19.23;;
3036;SDS011;1528;52.550;13.408;2024-03-08T16:30:21;28.03;;;25.90;;
3036;SDS011;1528;52.550;13.408;2024-03-08T16:33:08;21.43;;;20.10;;
3036;SDS011;1528;52.550;13.408;2024-03-08T16:35:55;19.13;;;17.63;;
3036;SDS011;1528;52.550;13.408;2024-03-08T16:38:41;22.03;;;20.47;;
3036;SDS011;1528;52.550;13.408;2024-03-08T16:41:30;23.20;;;21.30;;
3036;SDS011;1528;52.550;13.408;2024-03-08T16:44:15;19.07;;;17.57;;